Time;durP1;ratioP1;P1;durP2;ratioP2;P2;SDS_P1;SDS_P2;PMS_P1;PMS_P2;Temp;Humidity;BMP_temperature;BMP_pressure;BME280_temperature;BME280_humidity;BME280_pressure;Samples;Min_cycle;Max_cycle;Signal;HPM_P1;HPM_P2
2021/06/22 00:01:05;;;;;;;4.70;2.30;;;;;;;;;;5072807;28;20277;-72
2021/06/22 00:03:32;;;;;;;3.90;2.50;;;;;;;;;;5072324;28;20028;-72
2021/06/22 00:05:58;;;;;;;3.40;2.30;;;;;;;;;;5071286;28;20691;-73
2021/06/22 00:08:24;;;;;;;2.40;2.13;;;;;;;;;;5070151;28;20048;-72
2021/06/22 00:10:50;;;;;;;3.22;2.00;;;;;;;;;;5073151;28;20253;-72
2021/06/22 00:13:16;;;;;;;4.53;2.20;;;;;;;;;;5063440;28;20024;-72
2021/06/22 00:15:43;;;;;;;5.93;2.57;;;;;;;;;;5050780;28;20029;-74
2021/06/22 00:18:09;;;;;;;4.40;2.45;;;;;;;;;;5061498;28;20031;-72
2021/06/22 00:20:35;;;;;;;6.22;2.63;;;;;;;;;;5072094;28;20044;-72
2021/06/22 00:23:01;;;;;;;6.18;2.20;;;;;;;;;;5073574;28;20070;-72
2021/06/22 00:25:27;;;;;;;5.47;2.77;;;;;;;;;;5070311;28;20032;-72
2021/06/22 00:27:53;;;;;;;5.93;2.80;;;;;;;;;;5072358;28;20257;-72
2021/06/22 00:30:20;;;;;;;3.85;2.40;;;;;;;;;;5071726;28;20748;-72
2021/06/22 00:32:46;;;;;;;;;;;;;;;;;;5065503;28;20094;-72
2021/06/22 00:35:13;;;;;;;3.30;2.70;;;;;;;;;;5067604;28;19908;-73
2021/06/22 00:37:44;;;;;;;3.10;2.38;;;;;;;;;;5064485;28;20399;-72
2021/06/22 00:40:11;;;;;;;3.08;2.30;;;;;;;;;;5066223;28;20588;-72
2021/06/22 00:42:39;;;;;;;3.70;2.40;;;;;;;;;;5066164;28;20029;-72
2021/06/22 00:45:05;;;;;;;4.50;2.60;;;;;;;;;;5066413;28;20032;-72
2021/06/22 00:47:32;;;;;;;5.22;2.45;;;;;;;;;;5066192;28;20706;-72
2021/06/22 00:49:58;;;;;;;2.85;2.58;;;;;;;;;;5066725;28;20032;-72
2021/06/22 00:52:25;;;;;;;3.58;2.78;;;;;;;;;;5066225;28;20434;-72
2021/06/22 00:54:51;;;;;;;4.63;2.60;;;;;;;;;;5065295;28;20595;-72
2021/06/22 00:57:18;;;;;;;3.83;2.45;;;;;;;;;;5064496;28;20746;-72
2021/06/22 00:59:44;;;;;;;4.53;2.65;;;;;;;;;;5067346;28;20036;-72
2021/06/22 01:02:10;;;;;;;4.32;2.40;;;;;;;;;;5064831;28;20448;-72
2021/06/22 01:04:36;;;;;;;6.85;2.67;;;;;;;;;;5066524;28;20089;-72
2021/06/22 01:07:03;;;;;;;4.18;2.47;;;;;;;;;;5067099;28;20600;-72
2021/06/22 01:09:29;;;;;;;3.47;2.53;;;;;;;;;;5068275;28;20021;-72
2021/06/22 01:11:56;;;;;;;3.63;2.58;;;;;;;;;;5070442;28;20085;-72
2021/06/22 01:14:22;;;;;;;3.22;2.47;;;;;;;;;;5071453;28;20016;-72
2021/06/22 01:16:48;;;;;;;3.47;2.40;;;;;;;;;;5069763;28;20461;-72
2021/06/22 01:19:14;;;;;;;4.47;2.43;;;;;;;;;;5070986;28;20033;-72
2021/06/22 01:21:40;;;;;;;5.97;2.40;;;;;;;;;;5071563;28;20343;-72
2021/06/22 01:24:08;;;;;;;3.50;2.80;;;;;;;;;;5065637;28;20021;-72
2021/06/22 01:26:38;;;;;;;3.28;2.40;;;;;;;;;;5049977;28;20116;-73
2021/06/22 01:29:08;;;;;;;5.53;2.47;;;;;;;;;;5070890;28;20048;-72
2021/06/22 01:31:34;;;;;;;3.10;2.30;;;;;;;;;;5069302;28;20090;-72
2021/06/22 01:34:00;;;;;;;2.53;2.30;;;;;;;;;;5071146;28;20025;-72
2021/06/22 01:36:29;;;;;;;4.15;2.17;;;;;;;;;;5070876;28;20033;-72
2021/06/22 01:38:55;;;;;;;2.72;2.10;;;;;;;;;;5070304;28;20031;-72
2021/06/22 01:41:21;;;;;;;4.83;2.50;;;;;;;;;;5069917;28;20437;-72
2021/06/22 01:43:47;;;;;;;4.33;2.33;;;;;;;;;;5070695;28;20115;-72
2021/06/22 01:46:13;;;;;;;3.60;2.30;;;;;;;;;;4360598;28;10000760;-72
2021/06/22 01:48:39;;;;;;;2.47;2.20;;;;;;;;;;5069955;28;20542;-72
2021/06/22 01:51:05;;;;;;;4.78;2.30;;;;;;;;;;5068452;28;20169;-72
2021/06/22 01:53:31;;;;;;;3.53;2.28;;;;;;;;;;5062064;28;20032;-72
2021/06/22 01:55:57;;;;;;;2.65;2.38;;;;;;;;;;5050773;28;20107;-72
2021/06/22 01:58:24;;;;;;;3.10;2.10;;;;;;;;;;5051156;28;20521;-72
2021/06/22 02:00:54;;;;;;;5.50;2.50;;;;;;;;;;5051157;28;20041;-72
2021/06/22 02:03:21;;;;;;;3.70;2.13;;;;;;;;;;5056419;28;20477;-73
2021/06/22 02:05:48;;;;;;;4.78;2.22;;;;;;;;;;5051950;28;20029;-72
2021/06/22 02:08:14;;;;;;;;;;;;;;;;;;5049912;28;20486;-72
2021/06/22 02:10:40;;;;;;;2.55;2.00;;;;;;;;;;5050228;28;19920;-72
2021/06/22 02:13:06;;;;;;;3.33;2.35;;;;;;;;;;5058168;28;20025;-72
2021/06/22 02:15:32;;;;;;;5.68;2.20;;;;;;;;;;5070640;28;20028;-72
2021/06/22 02:17:59;;;;;;;2.43;2.20;;;;;;;;;;5070827;28;20028;-72
2021/06/22 02:20:25;;;;;;;2.85;2.60;;;;;;;;;;5069473;28;20292;-72
2021/06/22 02:22:51;;;;;;;2.43;1.90;;;;;;;;;;5067834;28;20029;-72
2021/06/22 02:25:17;;;;;;;2.53;2.20;;;;;;;;;;5051161;28;20100;-72
2021/06/22 02:27:43;;;;;;;3.08;2.05;;;;;;;;;;5049772;28;20265;-72
2021/06/22 02:30:11;;;;;;;3.72;2.38;;;;;;;;;;5050432;28;20032;-72
2021/06/22 02:32:37;;;;;;;2.70;2.00;;;;;;;;;;5050627;28;20029;-72
2021/06/22 02:35:07;;;;;;;3.20;1.92;;;;;;;;;;5051038;28;20025;-73
2021/06/22 02:37:33;;;;;;;3.30;2.15;;;;;;;;;;5048404;28;20021;-72
2021/06/22 02:39:59;;;;;;;2.27;2.03;;;;;;;;;;5049217;28;20025;-72
2021/06/22 02:42:25;;;;;;;4.65;1.85;;;;;;;;;;5053006;28;20750;-72
2021/06/22 02:44:51;;;;;;;2.17;1.97;;;;;;;;;;5055161;28;20021;-73
2021/06/22 02:47:17;;;;;;;2.43;1.77;;;;;;;;;;5055189;28;20264;-72
2021/06/22 02:49:43;;;;;;;2.53;2.10;;;;;;;;;;5053248;28;20477;-72
2021/06/22 02:52:09;;;;;;;3.10;2.20;;;;;;;;;;5055964;28;20330;-72
2021/06/22 02:54:38;;;;;;;2.55;2.05;;;;;;;;;;5058310;28;20032;-72
2021/06/22 02:57:05;;;;;;;2.20;1.98;;;;;;;;;;5054875;28;20037;-72
2021/06/22 02:59:31;;;;;;;3.05;2.15;;;;;;;;;;5059187;28;20029;-72
2021/06/22 03:01:57;;;;;;;2.47;2.03;;;;;;;;;;5056004;28;20088;-72
2021/06/22 03:04:24;;;;;;;2.73;1.93;;;;;;;;;;5055781;28;20040;-72
2021/06/22 03:06:50;;;;;;;2.05;1.85;;;;;;;;;;5054171;28;20120;-72
2021/06/22 03:09:16;;;;;;;2.30;1.70;;;;;;;;;;5063960;28;20024;-72
2021/06/22 03:11:42;;;;;;;2.40;2.07;;;;;;;;;;5070657;28;20373;-72
2021/06/22 03:14:08;;;;;;;3.75;1.88;;;;;;;;;;5070196;28;20040;-72
2021/06/22 03:16:35;;;;;;;4.00;2.10;;;;;;;;;;5070238;28;20370;-72
2021/06/22 03:19:01;;;;;;;7.63;2.00;;;;;;;;;;5069323;28;20078;-72
2021/06/22 03:21:27;;;;;;;3.17;1.87;;;;;;;;;;5068675;28;20405;-72
2021/06/22 03:23:53;;;;;;;2.05;1.85;;;;;;;;;;5057107;28;20040;-72
2021/06/22 03:26:19;;;;;;;2.67;2.00;;;;;;;;;;5068702;28;20020;-72
2021/06/22 03:28:45;;;;;;;2.43;1.77;;;;;;;;;;5070533;28;20253;-72
2021/06/22 03:31:11;;;;;;;1.73;1.63;;;;;;;;;;5071051;28;20104;-72
2021/06/22 03:33:37;;;;;;;1.90;1.70;;;;;;;;;;5071578;28;20254;-72
2021/06/22 03:36:04;;;;;;;4.43;1.83;;;;;;;;;;5065678;28;20024;-72
2021/06/22 03:38:30;;;;;;;3.38;1.95;;;;;;;;;;5072750;28;20385;-72
2021/06/22 03:40:56;;;;;;;2.10;1.90;;;;;;;;;;5071814;28;20032;-72
2021/06/22 03:43:22;;;;;;;2.20;2.00;;;;;;;;;;5059694;28;20109;-72
2021/06/22 03:45:48;;;;;;;3.13;1.85;;;;;;;;;;5059073;28;20037;-72
2021/06/22 03:48:14;;;;;;;2.65;1.80;;;;;;;;;;5060006;28;20032;-72
2021/06/22 03:50:40;;;;;;;3.10;1.80;;;;;;;;;;5057629;28;20047;-72
2021/06/22 03:53:07;;;;;;;3.20;1.75;;;;;;;;;;5059517;28;20079;-72
2021/06/22 03:55:33;;;;;;;2.28;1.80;;;;;;;;;;5059296;28;20389;-72
2021/06/22 03:58:00;;;;;;;2.70;1.87;;;;;;;;;;5059608;28;20037;-72
2021/06/22 04:00:26;;;;;;;4.32;1.90;;;;;;;;;;5059278;28;20028;-72
2021/06/22 04:02:53;;;;;;;3.47;1.90;;;;;;;;;;5059326;28;20032;-72
2021/06/22 04:05:19;;;;;;;2.42;1.77;;;;;;;;;;5054828;28;20378;-72
2021/06/22 04:07:45;;;;;;;2.60;1.90;;;;;;;;;;5052849;28;20166;-72
2021/06/22 04:10:11;;;;;;;2.50;1.83;;;;;;;;;;5053302;28;20529;-70
2021/06/22 04:12:37;;;;;;;2.63;1.70;;;;;;;;;;5057801;28;20036;-71
2021/06/22 04:15:03;;;;;;;3.63;1.70;;;;;;;;;;5072570;28;20376;-71
2021/06/22 04:17:29;;;;;;;3.03;1.92;;;;;;;;;;5072555;28;20315;-71
2021/06/22 04:19:55;;;;;;;2.57;1.70;;;;;;;;;;5072270;28;20716;-71
2021/06/22 04:22:22;;;;;;;2.87;1.77;;;;;;;;;;5071659;28;20028;-71
2021/06/22 04:24:47;;;;;;;2.55;1.60;;;;;;;;;;5052346;28;20083;-71
2021/06/22 04:27:14;;;;;;;3.37;1.83;;;;;;;;;;5051513;28;20021;-71
2021/06/22 04:29:40;;;;;;;1.80;1.60;;;;;;;;;;5052790;28;20037;-71
2021/06/22 04:32:06;;;;;;;3.03;1.67;;;;;;;;;;5051782;28;20139;-71
2021/06/22 04:34:32;;;;;;;2.15;1.90;;;;;;;;;;5053176;28;20107;-71
2021/06/22 04:36:58;;;;;;;1.97;1.80;;;;;;;;;;5052892;28;20082;-71
2021/06/22 04:39:24;;;;;;;2.60;1.60;;;;;;;;;;5051921;28;20278;-71
2021/06/22 04:41:53;;;;;;;3.72;1.67;;;;;;;;;;5054415;28;20270;-71
2021/06/22 04:44:19;;;;;;;1.85;1.75;;;;;;;;;;5057055;28;20373;-71
2021/06/22 04:46:45;;;;;;;3.17;1.80;;;;;;;;;;5058748;28;20441;-71
2021/06/22 04:49:11;;;;;;;2.03;1.83;;;;;;;;;;5056482;28;20127;-72
2021/06/22 04:51:37;;;;;;;1.90;1.58;;;;;;;;;;5057692;28;20768;-71
2021/06/22 04:54:03;;;;;;;2.97;1.70;;;;;;;;;;5059951;28;20037;-71
2021/06/22 04:56:29;;;;;;;2.13;1.60;;;;;;;;;;5057643;28;20028;-71
2021/06/22 04:58:56;;;;;;;2.78;1.85;;;;;;;;;;5062147;28;20091;-71
2021/06/22 05:01:22;;;;;;;;;;;;;;;;;;5057507;28;20032;-71
2021/06/22 05:03:48;;;;;;;1.60;1.50;;;;;;;;;;5057831;28;19905;-71
2021/06/22 05:06:14;;;;;;;2.33;1.40;;;;;;;;;;5052923;28;20031;-71
2021/06/22 05:08:40;;;;;;;2.33;1.40;;;;;;;;;;5067279;28;20361;-71
2021/06/22 05:11:06;;;;;;;1.80;1.23;;;;;;;;;;5072249;28;20029;-71
2021/06/22 05:13:33;;;;;;;1.63;1.30;;;;;;;;;;5072237;28;20276;-71
2021/06/22 05:15:59;;;;;;;1.67;1.23;;;;;;;;;;5070513;28;20382;-71
2021/06/22 05:18:25;;;;;;;1.75;1.20;;;;;;;;;;5069762;28;20032;-71
2021/06/22 05:20:51;;;;;;;1.27;1.00;;;;;;;;;;5070518;28;20048;-71
2021/06/22 05:23:17;;;;;;;1.23;1.13;;;;;;;;;;5071346;28;20509;-71
2021/06/22 05:25:44;;;;;;;1.30;1.20;;;;;;;;;;5071556;28;20032;-71
2021/06/22 05:28:10;;;;;;;1.40;0.90;;;;;;;;;;5071080;28;20027;-71
2021/06/22 05:30:36;;;;;;;1.40;1.23;;;;;;;;;;5070302;28;20378;-71
2021/06/22 05:33:02;;;;;;;3.60;1.27;;;;;;;;;;5071690;28;20028;-71
2021/06/22 05:35:29;;;;;;;1.92;0.93;;;;;;;;;;5070823;28;20040;-71
2021/06/22 05:37:55;;;;;;;1.88;1.10;;;;;;;;;;5071565;28;20082;-71
2021/06/22 05:40:21;;;;;;;3.57;1.00;;;;;;;;;;5056298;28;20383;-71
2021/06/22 05:42:48;;;;;;;1.10;0.98;;;;;;;;;;5052041;28;20035;-71
2021/06/22 05:45:14;;;;;;;1.40;0.90;;;;;;;;;;5050251;28;20033;-71
2021/06/22 05:47:40;;;;;;;2.38;1.10;;;;;;;;;;5050291;28;20021;-71
2021/06/22 05:50:06;;;;;;;4.00;1.13;;;;;;;;;;5050128;28;20032;-71
2021/06/22 05:52:32;;;;;;;5.53;1.10;;;;;;;;;;5052783;28;20177;-71
2021/06/22 05:54:58;;;;;;;7.73;1.00;;;;;;;;;;5069763;28;20027;-71
2021/06/22 05:57:24;;;;;;;1.67;1.10;;;;;;;;;;5070421;28;20496;-71
2021/06/22 05:59:51;;;;;;;2.73;1.07;;;;;;;;;;5069579;28;20040;-71
2021/06/22 06:02:17;;;;;;;4.72;1.30;;;;;;;;;;5068575;28;20471;-71
2021/06/22 06:04:43;;;;;;;5.57;1.10;;;;;;;;;;5060579;28;20029;-71
2021/06/22 06:07:09;;;;;;;2.17;1.23;;;;;;;;;;5070073;28;20024;-71
2021/06/22 06:09:36;;;;;;;1.67;1.23;;;;;;;;;;5071231;28;20089;-71
2021/06/22 06:12:04;;;;;;;;;;;;;;;;;;5069921;28;20435;-71
2021/06/22 06:14:31;;;;;;;4.32;1.30;;;;;;;;;;5051885;28;19911;-71
2021/06/22 06:16:57;;;;;;;2.45;1.15;;;;;;;;;;5090116;28;20425;-71
2021/06/22 06:19:23;;;;;;;3.58;1.00;;;;;;;;;;5071228;28;20473;-71
2021/06/22 06:21:49;;;;;;;2.47;0.87;;;;;;;;;;5089808;28;20039;-72
2021/06/22 06:24:15;;;;;;;3.70;1.05;;;;;;;;;;5091185;28;20026;-71
2021/06/22 06:27:25;;;;;;;5.83;1.00;;;;;;;;;;5071857;28;20119;-72
2021/06/22 06:32:05;;;;;;;3.72;1.10;;;;;;;;;;5091370;28;20035;-71
2021/06/22 06:34:32;;;;;;;2.55;1.13;;;;;;;;;;5090442;28;20115;-71
2021/06/22 06:36:58;;;;;;;2.47;1.05;;;;;;;;;;5072159;28;20064;-71
2021/06/22 06:39:24;;;;;;;3.45;1.30;;;;;;;;;;5090601;28;20088;-71
2021/06/22 06:41:52;;;;;;;2.17;1.03;;;;;;;;;;5089185;28;20078;-71
2021/06/22 06:44:18;;;;;;;5.40;1.10;;;;;;;;;;5089831;28;20039;-71
2021/06/22 06:46:44;;;;;;;1.43;1.00;;;;;;;;;;5089302;28;20020;-71
2021/06/22 06:49:10;;;;;;;1.43;1.00;;;;;;;;;;5089854;28;20461;-71
2021/06/22 06:51:36;;;;;;;3.00;1.00;;;;;;;;;;5070692;28;20032;-71
2021/06/22 06:54:02;;;;;;;1.00;0.90;;;;;;;;;;5090364;28;20626;-71
2021/06/22 06:56:28;;;;;;;3.37;1.00;;;;;;;;;;5090496;28;20035;-71
2021/06/22 06:58:54;;;;;;;5.90;1.17;;;;;;;;;;5090194;28;20396;-72
2021/06/22 07:01:20;;;;;;;2.33;1.07;;;;;;;;;;5088087;28;20032;-71
2021/06/22 07:03:46;;;;;;;2.42;0.98;;;;;;;;;;5092019;28;20052;-71
2021/06/22 07:06:13;;;;;;;1.08;0.98;;;;;;;;;;5093125;28;20048;-72
2021/06/22 07:10:41;;;;;;;5.15;1.00;;;;;;;;;;5110021;27;21201;-88
2021/06/22 07:13:13;;;;;;;1.90;0.80;;;;;;;;;;5090946;28;20044;-87
2021/06/22 07:15:40;;;;;;;3.17;1.30;;;;;;;;;;5090138;28;20021;-86
2021/06/22 07:18:06;;;;;;;4.53;1.67;;;;;;;;;;5091682;28;20028;-84
2021/06/22 07:20:32;;;;;;;5.85;1.05;;;;;;;;;;5080888;28;20290;-87
2021/06/22 07:22:58;;;;;;;0.90;0.80;;;;;;;;;;5089433;28;20034;-83
2021/06/22 07:25:27;;;;;;;2.50;1.10;;;;;;;;;;5088045;28;20269;-80
2021/06/22 07:27:53;;;;;;;1.10;0.90;;;;;;;;;;5081125;28;20033;-79
2021/06/22 07:30:23;;;;;;;4.57;1.08;;;;;;;;;;5074893;28;20478;-84
2021/06/22 07:32:49;;;;;;;2.63;1.02;;;;;;;;;;5069432;28;20028;-83
2021/06/22 07:35:15;;;;;;;2.20;1.10;;;;;;;;;;5088034;28;20073;-87
2021/06/22 07:37:41;;;;;;;1.67;1.00;;;;;;;;;;5088383;28;20017;-88
2021/06/22 07:40:08;;;;;;;1.50;1.03;;;;;;;;;;5090989;28;20462;-87
2021/06/22 07:42:34;;;;;;;1.88;1.10;;;;;;;;;;5085789;28;20388;-86
2021/06/22 07:45:01;;;;;;;1.43;1.00;;;;;;;;;;5068680;28;20024;-85
2021/06/22 07:47:27;;;;;;;1.90;1.20;;;;;;;;;;5066704;28;20363;-84
2021/06/22 07:49:53;;;;;;;2.42;1.20;;;;;;;;;;5088301;28;20032;-83
2021/06/22 07:52:19;;;;;;;1.47;1.10;;;;;;;;;;4371778;27;10000722;-84
2021/06/22 07:54:47;;;;;;;1.27;1.00;;;;;;;;;;5076156;28;20497;-84
2021/06/22 07:57:13;;;;;;;4.70;1.10;;;;;;;;;;5078649;28;20266;-87
2021/06/22 07:59:39;;;;;;;2.47;1.20;;;;;;;;;;5072335;28;20115;-87
2021/06/22 08:02:05;;;;;;;4.80;1.27;;;;;;;;;;5072277;28;20068;-79
2021/06/22 08:04:31;;;;;;;4.72;2.00;;;;;;;;;;5073159;28;20031;-74
2021/06/22 08:06:57;;;;;;;9.30;2.43;;;;;;;;;;5073080;28;20392;-75
2021/06/22 08:09:23;;;;;;;7.90;2.10;;;;;;;;;;5070114;28;20048;-76
2021/06/22 08:11:49;;;;;;;6.87;1.83;;;;;;;;;;5071126;28;20098;-76
2021/06/22 08:14:15;;;;;;;6.35;2.08;;;;;;;;;;5070321;28;20032;-77
2021/06/22 08:16:42;;;;;;;6.03;2.10;;;;;;;;;;5070060;28;20032;-76
2021/06/22 08:19:08;;;;;;;5.43;2.58;;;;;;;;;;5071729;28;20733;-76
2021/06/22 08:21:34;;;;;;;4.43;1.70;;;;;;;;;;5059213;28;20040;-76
2021/06/22 08:24:00;;;;;;;5.07;1.95;;;;;;;;;;5057965;28;20262;-76
2021/06/22 08:26:27;;;;;;;5.15;1.40;;;;;;;;;;5059035;28;20037;-77
2021/06/22 08:28:53;;;;;;;4.97;1.67;;;;;;;;;;5059548;28;20124;-77
2021/06/22 08:31:19;;;;;;;6.90;1.60;;;;;;;;;;5057301;28;20573;-77
2021/06/22 08:33:46;;;;;;;2.95;1.48;;;;;;;;;;5059006;28;20443;-77
2021/06/22 08:36:12;;;;;;;3.45;1.45;;;;;;;;;;5056335;28;20454;-77
2021/06/22 08:38:38;;;;;;;2.43;1.30;;;;;;;;;;5055438;28;20039;-77
2021/06/22 08:41:07;;;;;;;6.88;1.70;;;;;;;;;;5056840;28;20398;-77
2021/06/22 08:43:33;;;;;;;2.85;1.13;;;;;;;;;;5057368;28;20530;-77
2021/06/22 08:46:03;;;;;;;3.22;1.10;;;;;;;;;;5058021;28;20813;-77
2021/06/22 08:48:30;;;;;;;2.88;1.30;;;;;;;;;;5057017;28;20029;-78
2021/06/22 08:50:56;;;;;;;2.15;1.10;;;;;;;;;;5059099;28;20027;-78
2021/06/22 08:53:23;;;;;;;2.97;1.23;;;;;;;;;;5057782;28;20039;-79
2021/06/22 08:55:49;;;;;;;3.17;1.10;;;;;;;;;;5057074;28;20048;-77
2021/06/22 08:58:17;;;;;;;4.35;1.20;;;;;;;;;;5060737;28;20017;-79
2021/06/22 09:00:45;;;;;;;5.32;1.20;;;;;;;;;;5057658;28;20037;-77
2021/06/22 09:03:12;;;;;;;2.65;1.13;;;;;;;;;;5057572;28;20025;-76
2021/06/22 09:05:38;;;;;;;;;;;;;;;;;;5058116;28;20083;-78
2021/06/22 09:08:04;;;;;;;2.30;1.00;;;;;;;;;;5058143;28;19916;-77
2021/06/22 09:10:32;;;;;;;2.55;0.95;;;;;;;;;;5056485;28;20049;-78
2021/06/22 09:12:59;;;;;;;4.95;1.20;;;;;;;;;;5054930;28;20375;-80
2021/06/22 09:15:31;;;;;;;2.60;0.93;;;;;;;;;;5060831;28;20044;-79
2021/06/22 09:17:58;;;;;;;1.83;0.98;;;;;;;;;;5060822;28;20024;-79
2021/06/22 09:20:24;;;;;;;;;;;;;;;;;;5058906;28;20104;-79
2021/06/22 09:23:02;;;;;;;2.60;0.90;;;;;;;;;;5061244;28;20408;-78
2021/06/22 09:25:28;;;;;;;2.63;0.65;;;;;;;;;;5059687;28;20024;-78
2021/06/22 09:27:55;;;;;;;2.53;1.27;;;;;;;;;;5059529;28;20029;-77
2021/06/22 09:30:40;;;;;;;5.00;0.80;;;;;;;;;;5055556;28;20020;-78
2021/06/22 09:33:16;;;;;;;1.70;0.80;;;;;;;;;;5057430;28;20020;-82
2021/06/22 09:35:42;;;;;;;22.17;3.83;;;;;;;;;;5055032;28;20024;-82
2021/06/22 09:38:09;;;;;;;17.42;2.97;;;;;;;;;;5059245;28;20017;-81
2021/06/22 09:40:35;;;;;;;13.73;2.33;;;;;;;;;;5059530;28;20047;-81
2021/06/22 09:43:02;;;;;;;15.27;2.33;;;;;;;;;;5054932;28;20041;-81
2021/06/22 09:45:29;;;;;;;17.25;2.45;;;;;;;;;;5058694;28;20033;-82
2021/06/22 09:47:59;;;;;;;9.95;2.35;;;;;;;;;;5058474;28;20025;-83
2021/06/22 09:50:36;;;;;;;7.93;1.80;;;;;;;;;;5056415;28;20021;-83
2021/06/22 09:53:21;;;;;;;5.97;1.52;;;;;;;;;;5060341;28;20028;-83
2021/06/22 09:55:47;;;;;;;5.05;1.50;;;;;;;;;;5056281;28;20056;-82
2021/06/22 09:58:14;;;;;;;8.87;1.50;;;;;;;;;;5060496;28;20031;-82
2021/06/22 10:00:40;;;;;;;2.78;1.10;;;;;;;;;;5057228;28;20036;-82
2021/06/22 10:03:06;;;;;;;3.03;1.00;;;;;;;;;;5055615;28;20025;-82
2021/06/22 10:05:49;;;;;;;2.25;0.90;;;;;;;;;;5054213;28;20506;-82
2021/06/22 10:08:15;;;;;;;1.63;0.88;;;;;;;;;;5057320;28;20042;-82
2021/06/22 10:10:41;;;;;;;2.63;1.00;;;;;;;;;;5057380;28;20648;-82
2021/06/22 10:13:08;;;;;;;3.10;0.90;;;;;;;;;;5062157;28;20025;-82
2021/06/22 10:15:34;;;;;;;2.67;1.23;;;;;;;;;;5064194;28;20024;-81
2021/06/22 10:18:00;;;;;;;1.07;0.80;;;;;;;;;;5059642;28;20017;-80
2021/06/22 10:20:26;;;;;;;2.22;0.80;;;;;;;;;;5066169;28;20033;-81
2021/06/22 10:22:53;;;;;;;12.40;1.33;;;;;;;;;;5060995;28;20029;-79
2021/06/22 10:25:20;;;;;;;7.25;1.20;;;;;;;;;;5059992;28;20055;-76
2021/06/22 10:27:50;;;;;;;9.98;1.40;;;;;;;;;;5058379;28;20478;-79
2021/06/22 10:30:19;;;;;;;8.88;1.30;;;;;;;;;;5057272;28;20032;-79
2021/06/22 10:32:46;;;;;;;10.60;1.20;;;;;;;;;;5065914;28;20035;-82
2021/06/22 10:35:13;;;;;;;12.48;1.80;;;;;;;;;;5075573;28;20016;-83
2021/06/22 10:37:58;;;;;;;8.18;1.95;;;;;;;;;;5073303;28;20020;-82
2021/06/22 10:40:26;;;;;;;16.02;2.40;;;;;;;;;;5071782;28;20032;-81
2021/06/22 10:42:54;;;;;;;5.60;1.30;;;;;;;;;;5055460;28;20052;-80
2021/06/22 10:45:20;;;;;;;7.75;1.48;;;;;;;;;;5062201;28;20450;-80
2021/06/22 10:47:47;;;;;;;4.53;1.20;;;;;;;;;;5064475;28;20031;-81
2021/06/22 10:50:18;;;;;;;5.07;1.20;;;;;;;;;;5061010;28;20028;-80
2021/06/22 10:52:45;;;;;;;5.03;1.30;;;;;;;;;;5057069;28;20343;-81
2021/06/22 10:55:21;;;;;;;5.22;1.20;;;;;;;;;;5063614;28;20013;-80
2021/06/22 10:57:59;;;;;;;1.77;1.27;;;;;;;;;;5056462;28;20374;-81
2021/06/22 11:00:26;;;;;;;2.25;1.17;;;;;;;;;;5055062;28;20032;-80
2021/06/22 11:03:02;;;;;;;1.42;1.10;;;;;;;;;;5056097;28;20377;-81
2021/06/22 11:05:28;;;;;;;1.10;0.98;;;;;;;;;;5054583;28;20062;-82
2021/06/22 11:08:09;;;;;;;1.63;0.90;;;;;;;;;;5057295;28;20060;-80
2021/06/22 11:10:42;;;;;;;1.45;1.02;;;;;;;;;;5054122;28;20049;-81
2021/06/22 11:13:28;;;;;;;1.45;1.00;;;;;;;;;;5052323;28;20016;-81
2021/06/22 11:15:55;;;;;;;2.03;1.10;;;;;;;;;;5053073;28;20058;-80
2021/06/22 11:18:21;;;;;;;3.50;1.00;;;;;;;;;;5054254;28;20020;-80
2021/06/22 11:21:06;;;;;;;2.90;1.20;;;;;;;;;;5056771;28;20024;-81
2021/06/22 11:23:52;;;;;;;2.50;1.10;;;;;;;;;;5056461;28;20029;-80
2021/06/22 11:26:18;;;;;;;3.33;1.10;;;;;;;;;;5060953;28;20028;-81
2021/06/22 11:28:57;;;;;;;2.45;1.10;;;;;;;;;;5055863;28;20122;-80
2021/06/22 11:31:43;;;;;;;1.42;1.10;;;;;;;;;;5061096;28;20020;-80
2021/06/22 11:34:09;;;;;;;2.00;0.90;;;;;;;;;;5057879;28;20377;-80
2021/06/22 11:36:36;;;;;;;1.25;0.82;;;;;;;;;;5055841;28;20525;-80
2021/06/22 11:39:17;;;;;;;3.90;0.90;;;;;;;;;;5057567;28;20029;-81
2021/06/22 11:42:02;;;;;;;2.08;1.00;;;;;;;;;;5057979;28;20382;-80
2021/06/22 11:44:28;;;;;;;1.88;1.00;;;;;;;;;;5056136;28;20029;-81
2021/06/22 11:46:55;;;;;;;3.03;1.10;;;;;;;;;;5056844;28;20041;-81
2021/06/22 11:49:37;;;;;;;1.13;0.90;;;;;;;;;;5060413;28;20497;-81
2021/06/22 11:52:04;;;;;;;1.20;1.10;;;;;;;;;;5058106;28;20075;-80
2021/06/22 11:54:50;;;;;;;2.42;1.25;;;;;;;;;;5057943;28;20024;-80
2021/06/22 11:57:16;;;;;;;;;;;;;;;;;;5057105;28;20043;-81
2021/06/22 11:59:42;;;;;;;1.13;0.82;;;;;;;;;;5058598;28;19912;-79
2021/06/22 12:02:08;;;;;;;1.10;1.00;;;;;;;;;;5060298;28;20029;-80
2021/06/22 12:04:34;;;;;;;1.33;0.80;;;;;;;;;;5061165;28;20079;-81
2021/06/22 12:07:00;;;;;;;1.05;0.90;;;;;;;;;;5062743;28;20020;-81
2021/06/22 12:09:27;;;;;;;1.92;1.10;;;;;;;;;;5059578;28;20060;-80
2021/06/22 12:11:55;;;;;;;1.77;1.00;;;;;;;;;;5061753;28;20028;-79
2021/06/22 12:14:21;;;;;;;1.33;1.20;;;;;;;;;;5061751;28;20029;-82
2021/06/22 12:16:50;;;;;;;1.23;1.00;;;;;;;;;;5059515;28;20021;-81
2021/06/22 12:19:18;;;;;;;1.48;0.98;;;;;;;;;;5060775;28;20036;-81
2021/06/22 12:21:51;;;;;;;3.50;1.00;;;;;;;;;;5061414;28;20025;-80
2021/06/22 12:24:18;;;;;;;1.10;0.95;;;;;;;;;;5063663;28;20550;-80
2021/06/22 12:26:45;;;;;;;;;;;;;;;;;;5061677;28;20024;-79
2021/06/22 12:29:21;;;;;;;3.85;1.15;;;;;;;;;;5059199;28;19924;-80
2021/06/22 12:31:51;;;;;;;3.40;1.08;;;;;;;;;;5060582;28;20386;-81
2021/06/22 12:34:18;;;;;;;3.50;1.13;;;;;;;;;;5061533;28;20090;-79
2021/06/22 12:36:44;;;;;;;2.70;1.05;;;;;;;;;;5064803;28;20036;-80
2021/06/22 12:39:11;;;;;;;2.30;1.17;;;;;;;;;;5062289;28;20756;-81
2021/06/22 12:41:37;;;;;;;1.80;1.13;;;;;;;;;;5061540;28;20016;-80
2021/06/22 12:44:06;;;;;;;1.90;1.10;;;;;;;;;;5061300;28;20028;-81
2021/06/22 12:46:34;;;;;;;2.83;1.20;;;;;;;;;;5060334;28;20050;-80
2021/06/22 12:49:00;;;;;;;4.07;1.13;;;;;;;;;;5057103;28;20868;-78
2021/06/22 12:51:32;;;;;;;5.43;1.40;;;;;;;;;;5057610;28;20035;-77
2021/06/22 12:53:59;;;;;;;2.08;1.00;;;;;;;;;;5059877;28;20028;-78
2021/06/22 12:56:31;;;;;;;4.15;1.40;;;;;;;;;;5058349;28;20025;-77
2021/06/22 12:59:00;;;;;;;3.03;1.00;;;;;;;;;;5058910;28;20031;-76
2021/06/22 13:01:35;;;;;;;2.45;1.10;;;;;;;;;;5058614;28;20025;-75
2021/06/22 13:04:02;;;;;;;2.80;1.27;;;;;;;;;;5057926;28;20025;-76
2021/06/22 13:06:28;;;;;;;;;;;;;;;;;;5060413;28;20032;-76
2021/06/22 13:08:55;;;;;;;2.67;1.13;;;;;;;;;;5059696;28;19986;-77
2021/06/22 13:11:26;;;;;;;3.40;1.10;;;;;;;;;;5056883;28;20033;-76
2021/06/22 13:13:52;;;;;;;1.73;1.00;;;;;;;;;;5059269;28;20069;-76
2021/06/22 13:16:18;;;;;;;1.60;0.80;;;;;;;;;;5061182;28;20017;-79
2021/06/22 13:19:04;;;;;;;2.63;1.00;;;;;;;;;;5058120;28;20340;-77
2021/06/22 13:21:45;;;;;;;3.45;1.13;;;;;;;;;;5057017;28;20023;-79
2021/06/22 13:24:12;;;;;;;2.10;1.20;;;;;;;;;;5060206;28;20795;-77
2021/06/22 13:26:39;;;;;;;1.58;0.90;;;;;;;;;;5060491;28;20027;-79
2021/06/22 13:29:06;;;;;;;1.85;1.00;;;;;;;;;;5060536;28;20135;-82
2021/06/22 13:31:32;;;;;;;;;;;;;;;;;;5057388;28;20112;-78
2021/06/22 13:34:07;;;;;;;3.00;1.00;;;;;;;;;;5060682;28;19958;-79
2021/06/22 13:36:33;;;;;;;3.90;1.02;;;;;;;;;;5058087;28;20024;-79
2021/06/22 13:39:04;;;;;;;1.47;0.87;;;;;;;;;;5058529;28;20594;-81
2021/06/22 13:41:43;;;;;;;5.50;1.10;;;;;;;;;;5057725;28;20117;-77
2021/06/22 13:44:10;;;;;;;3.22;0.90;;;;;;;;;;5059880;28;20361;-80
2021/06/22 13:46:37;;;;;;;2.65;0.90;;;;;;;;;;5060019;28;20117;-80
2021/06/22 13:49:04;;;;;;;9.82;1.15;;;;;;;;;;5058465;28;20482;-79
2021/06/22 13:51:31;;;;;;;3.72;1.10;;;;;;;;;;5077342;28;20039;-81
2021/06/22 13:54:13;;;;;;;2.72;0.90;;;;;;;;;;5058701;28;20017;-83
2021/06/22 13:56:40;;;;;;;2.45;1.00;;;;;;;;;;5057499;28;20016;-80
2021/06/22 13:59:07;;;;;;;3.63;0.75;;;;;;;;;;5059533;28;20031;-81
2021/06/22 14:01:33;;;;;;;;;;;;;;;;;;5060944;28;20032;-82
2021/06/22 14:04:00;;;;;;;1.42;1.00;;;;;;;;;;5057760;28;19905;-78
2021/06/22 14:06:27;;;;;;;1.15;0.93;;;;;;;;;;5058461;28;20024;-78
2021/06/22 14:08:53;;;;;;;2.58;0.80;;;;;;;;;;5059298;28;20049;-83
2021/06/22 14:11:19;;;;;;;1.00;0.90;;;;;;;;;;5057401;28;20536;-82
2021/06/22 14:13:48;;;;;;;1.93;0.97;;;;;;;;;;5055497;28;20024;-79
2021/06/22 14:16:14;;;;;;;2.03;0.95;;;;;;;;;;5057785;28;20025;-78
2021/06/22 14:18:40;;;;;;;1.73;0.80;;;;;;;;;;5057059;28;20037;-77
2021/06/22 14:21:06;;;;;;;1.47;0.83;;;;;;;;;;5057650;28;20012;-79
2021/06/22 14:23:32;;;;;;;1.53;0.80;;;;;;;;;;5054610;28;20115;-84
2021/06/22 14:25:58;;;;;;;2.27;0.80;;;;;;;;;;5058941;28;20344;-82
2021/06/22 14:28:25;;;;;;;1.23;0.90;;;;;;;;;;5058094;28;20028;-81
2021/06/22 14:30:52;;;;;;;0.80;0.75;;;;;;;;;;5058976;28;20031;-82
2021/06/22 14:33:19;;;;;;;1.05;0.90;;;;;;;;;;5059520;28;20040;-79
2021/06/22 14:35:45;;;;;;;1.98;0.90;;;;;;;;;;5058001;28;20052;-80
2021/06/22 14:38:11;;;;;;;1.33;0.90;;;;;;;;;;5057911;28;20031;-83
2021/06/22 14:40:38;;;;;;;1.50;0.75;;;;;;;;;;5062253;28;20028;-83
2021/06/22 14:43:04;;;;;;;4.90;1.38;;;;;;;;;;5056312;28;20024;-77
2021/06/22 14:45:30;;;;;;;10.52;1.30;;;;;;;;;;5062914;28;20032;-84
2021/06/22 14:48:01;;;;;;;3.90;0.90;;;;;;;;;;5060912;28;20048;-83
2021/06/22 14:50:28;;;;;;;5.30;0.93;;;;;;;;;;5054117;28;20273;-81
2021/06/22 14:52:54;;;;;;;3.20;1.00;;;;;;;;;;5056416;28;20482;-79